createdAt,value
2017-08-20T00:00:26.982Z,14.37
2017-08-20T00:01:26.975Z,14.37
2017-08-20T00:02:27.275Z,14.38
2017-08-20T00:03:26.948Z,14.32
2017-08-20T00:04:26.931Z,14.35
2017-08-20T00:05:27.236Z,14.34
2017-08-20T00:06:27.223Z,14.35
2017-08-20T00:07:26.891Z,14.28
2017-08-20T00:08:27.261Z,14.25
2017-08-20T00:09:26.865Z,14.19
2017-08-20T00:10:26.540Z,14.29
2017-08-20T00:11:26.531Z,14.21
2017-08-20T00:12:27.144Z,14.28
2017-08-20T00:13:26.809Z,14.28
2017-08-20T00:14:26.800Z,14.21
2017-08-20T00:15:27.098Z,14.27
2017-08-20T00:16:26.773Z,14.27
2017-08-20T00:17:26.758Z,14.32
2017-08-20T00:18:27.058Z,14.21
2017-08-20T00:19:26.732Z,14.28
2017-08-20T00:20:27.031Z,14.24
2017-08-20T00:21:26.706Z,14.24
2017-08-20T00:22:27.002Z,14.27
2017-08-20T00:23:26.676Z,14.29
2017-08-20T00:24:27.077Z,14.27
2017-08-20T00:25:26.965Z,14.29
2017-08-20T00:26:26.325Z,14.21
2017-08-20T00:27:26.938Z,14.2
2017-08-20T00:28:26.611Z,14.19
2017-08-20T00:29:26.907Z,14.16
2017-08-20T00:30:26.582Z,14.16
2017-08-20T00:31:26.570Z,14.19
2017-08-20T00:32:26.558Z,14.21
2017-08-20T00:33:26.542Z,14.17
2017-08-20T00:34:26.532Z,14.21
2017-08-20T00:35:26.843Z,14.13
2017-08-20T00:36:26.821Z,14.24
2017-08-20T00:37:26.799Z,14.25
2017-08-20T00:38:26.792Z,14.28
2017-08-20T00:39:26.462Z,14.21
2017-08-20T00:40:26.135Z,14.28
2017-08-20T00:41:26.442Z,14.29
2017-08-20T00:42:26.734Z,14.32
2017-08-20T00:43:26.092Z,14.27
2017-08-20T00:44:26.394Z,14.32
2017-08-20T00:45:26.378Z,14.24
2017-08-20T00:46:26.433Z,14.34
2017-08-20T00:47:26.040Z,14.31
2017-08-20T00:48:26.652Z,14.31
2017-08-20T00:49:26.636Z,14.32
2017-08-20T00:50:26.318Z,14.35
2017-08-20T00:51:26.613Z,14.35
2017-08-20T00:52:26.283Z,14.37
2017-08-20T00:53:26.273Z,14.35
2017-08-20T00:54:26.260Z,14.38
2017-08-20T00:55:26.564Z,14.37
2017-08-20T00:56:26.552Z,14.43
2017-08-20T00:57:26.219Z,14.47
2017-08-20T00:58:26.617Z,14.43
2017-08-20T00:59:26.503Z,14.42
2017-08-20T01:00:26.485Z,14.34
2017-08-20T01:01:26.162Z,14.42
2017-08-20T01:02:26.155Z,14.42
2017-08-20T01:03:26.447Z,14.37
2017-08-20T01:04:26.127Z,14.49
2017-08-20T01:05:26.428Z,14.34
2017-08-20T01:06:26.408Z,14.42
2017-08-20T01:07:26.086Z,14.32
2017-08-20T01:08:26.385Z,14.34
2017-08-20T01:09:26.054Z,14.44
2017-08-20T01:10:26.049Z,14.43
2017-08-20T01:11:26.031Z,14.47
2017-08-20T01:12:26.325Z,14.46
2017-08-20T01:13:26.315Z,14.43
2017-08-20T01:14:25.679Z,14.5
2017-08-20T01:15:26.296Z,14.44
2017-08-20T01:16:25.966Z,14.49
2017-08-20T01:17:25.955Z,14.47
2017-08-20T01:18:25.626Z,14.46
2017-08-20T01:19:26.235Z,14.46
2017-08-20T01:20:26.221Z,14.49
2017-08-20T01:21:25.894Z,14.46
2017-08-20T01:22:25.888Z,14.5
2017-08-20T01:23:26.183Z,14.5
2017-08-20T01:24:26.168Z,14.44
2017-08-20T01:25:26.155Z,14.49
2017-08-20T01:26:25.518Z,14.46
2017-08-20T01:27:25.808Z,14.5
2017-08-20T01:28:25.803Z,14.47
2017-08-20T01:29:26.096Z,14.53
2017-08-20T01:30:26.097Z,14.46
2017-08-20T01:31:26.075Z,14.46
2017-08-20T01:32:25.744Z,14.5
2017-08-20T01:33:25.730Z,14.46
2017-08-20T01:34:26.037Z,14.43
2017-08-20T01:35:25.714Z,14.49
2017-08-20T01:36:26.016Z,14.44
2017-08-20T01:37:25.682Z,14.42
2017-08-20T01:38:25.671Z,14.44
2017-08-20T01:39:25.653Z,14.38
2017-08-20T01:40:25.961Z,14.37
2017-08-20T01:41:25.624Z,14.37
2017-08-20T01:42:25.929Z,14.34
2017-08-20T01:43:25.594Z,14.34
2017-08-20T01:44:25.898Z,14.35
2017-08-20T01:45:25.573Z,14.35
2017-08-20T01:46:25.874Z,14.34
2017-08-20T01:47:25.544Z,14.27
2017-08-20T01:48:25.528Z,14.21
2017-08-20T01:49:25.518Z,14.27
2017-08-20T01:50:26.115Z,14.27
2017-08-20T01:51:25.488Z,14.29
2017-08-20T01:52:25.476Z,14.28
2017-08-20T01:53:25.151Z,14.28
2017-08-20T01:54:25.454Z,14.32
2017-08-20T01:55:25.125Z,14.13
2017-08-20T01:56:25.734Z,14.17
2017-08-20T01:57:25.406Z,14.13
2017-08-20T01:58:25.711Z,14.13
2017-08-20T01:59:25.700Z,14.12
2017-08-20T02:00:25.677Z,14.19
2017-08-20T02:01:25.069Z,14.09
2017-08-20T02:02:25.653Z,14.09
2017-08-20T02:03:25.330Z,14.1
2017-08-20T02:04:25.628Z,14.09
2017-08-20T02:05:25.298Z,14.12
2017-08-20T02:06:24.970Z,14.06
2017-08-20T02:07:25.790Z,14.04
2017-08-20T02:08:25.261Z,14.14
2017-08-20T02:09:25.554Z,14.07
2017-08-20T02:10:25.232Z,14.14
2017-08-20T02:11:25.533Z,14.09
2017-08-20T02:12:25.517Z,14.06
2017-08-20T02:13:25.500Z,14.01
2017-08-20T02:14:25.507Z,14.07
2017-08-20T02:15:25.220Z,14.02
2017-08-20T02:16:24.839Z,14.06
2017-08-20T02:17:25.456Z,14.01
2017-08-20T02:18:25.434Z,14.04
2017-08-20T02:19:25.102Z,14.06
2017-08-20T02:20:24.783Z,14.04
2017-08-20T02:21:25.081Z,14.04
2017-08-20T02:22:25.117Z,13.98
2017-08-20T02:23:25.370Z,14.04
2017-08-20T02:24:25.041Z,14.01
2017-08-20T02:25:25.025Z,14.12
2017-08-20T02:26:25.017Z,14.13
2017-08-20T02:27:24.687Z,14.16
2017-08-20T02:28:25.498Z,14.19
2017-08-20T02:29:24.661Z,14.21
2017-08-20T02:30:24.962Z,14.12
2017-08-20T02:31:25.253Z,14.14
2017-08-20T02:32:25.243Z,14.13
2017-08-20T02:33:24.916Z,14.16
2017-08-20T02:34:24.919Z,14.29
2017-08-20T02:35:24.888Z,14.27
2017-08-20T02:36:24.877Z,14.28
2017-08-20T02:37:24.862Z,14.31
2017-08-20T02:38:25.163Z,14.17
2017-08-20T02:39:24.831Z,14.2
2017-08-20T02:40:25.134Z,14.31
2017-08-20T02:41:24.814Z,14.32
2017-08-20T02:42:25.108Z,14.17
2017-08-20T02:43:24.470Z,14.35
2017-08-20T02:44:24.771Z,14.29
2017-08-20T02:45:25.062Z,14.24
2017-08-20T02:46:24.744Z,14.27
2017-08-20T02:47:24.726Z,14.2
2017-08-20T02:48:25.028Z,14.31
2017-08-20T02:49:25.016Z,14.27
2017-08-20T02:50:24.685Z,14.2
2017-08-20T02:51:24.668Z,14.28
2017-08-20T02:52:24.655Z,14.27
2017-08-20T02:53:24.958Z,14.19
2017-08-20T02:54:24.633Z,14.32
2017-08-20T02:55:24.614Z,14.25
2017-08-20T02:56:24.391Z,14.29
2017-08-20T02:57:24.616Z,14.16
2017-08-20T02:58:24.891Z,14.21
2017-08-20T02:59:24.566Z,14.16
2017-08-20T03:00:24.549Z,14.16
2017-08-20T03:01:25.097Z,14.16
2017-08-20T03:02:24.522Z,14.21
2017-08-20T03:03:24.510Z,14.06
2017-08-20T03:04:24.493Z,14.04
2017-08-20T03:05:24.691Z,14.1
2017-08-20T03:06:24.777Z,14.09
2017-08-20T03:07:24.765Z,14.09
2017-08-20T03:08:24.758Z,14.07
2017-08-20T03:09:24.754Z,14.14
2017-08-20T03:10:24.476Z,14.06
2017-08-20T03:11:24.502Z,14.09
2017-08-20T03:12:24.385Z,14.1
2017-08-20T03:13:24.734Z,14.07
2017-08-20T03:14:24.045Z,14.14
2017-08-20T03:15:24.341Z,14.17
2017-08-20T03:16:24.331Z,14.09
2017-08-20T03:17:24.007Z,14.24
2017-08-20T03:18:23.997Z,14.2
2017-08-20T03:19:56.051Z,14.17
2017-08-20T03:20:24.588Z,14.25
2017-08-20T03:21:24.264Z,14.19
2017-08-20T03:22:24.560Z,14.2
2017-08-20T03:23:24.548Z,14.29
2017-08-20T03:24:24.537Z,14.27
2017-08-20T03:25:24.518Z,14.32
2017-08-20T03:26:24.517Z,14.19
2017-08-20T03:27:23.868Z,14.27
2017-08-20T03:28:24.476Z,14.25
2017-08-20T03:29:24.478Z,14.28
2017-08-20T03:30:24.474Z,14.31
2017-08-20T03:31:24.450Z,14.21
2017-08-20T03:32:24.427Z,14.24
2017-08-20T03:33:24.408Z,14.34
2017-08-20T03:34:23.772Z,14.31
2017-08-20T03:35:24.380Z,14.28
2017-08-20T03:36:24.062Z,14.32
2017-08-20T03:37:24.348Z,14.28
2017-08-20T03:38:24.341Z,14.27
2017-08-20T03:39:23.696Z,14.21
2017-08-20T03:40:23.997Z,14.25
2017-08-20T03:41:23.987Z,14.09
2017-08-20T03:42:23.971Z,14.2
2017-08-20T03:43:23.960Z,14.14
2017-08-20T03:44:24.260Z,14.14
2017-08-20T03:45:23.978Z,14.17
2017-08-20T03:46:24.229Z,14.13
2017-08-20T03:47:24.210Z,14.12
2017-08-20T03:48:23.963Z,14.09
2017-08-20T03:49:23.927Z,14.07
2017-08-20T03:50:23.861Z,14.12
2017-08-20T03:51:23.848Z,14.16
2017-08-20T03:52:23.830Z,14.04
2017-08-20T03:53:24.130Z,14.02
2017-08-20T03:54:23.801Z,14.04
2017-08-20T03:55:23.489Z,13.96
2017-08-20T03:56:23.780Z,13.96
2017-08-20T03:57:23.760Z,13.96
2017-08-20T03:58:24.066Z,13.94
2017-08-20T03:59:23.734Z,13.95
2017-08-20T04:00:24.046Z,13.92
2017-08-20T04:01:23.706Z,13.91
2017-08-20T04:02:24.007Z,13.91
2017-08-20T04:03:23.993Z,13.91
2017-08-20T04:04:23.361Z,13.89
2017-08-20T04:05:23.657Z,13.92
2017-08-20T04:06:23.640Z,13.83
2017-08-20T04:07:23.622Z,13.79
2017-08-20T04:08:23.614Z,13.79
2017-08-20T04:09:23.598Z,13.89
2017-08-20T04:10:23.920Z,13.8
2017-08-20T04:11:23.575Z,13.87
2017-08-20T04:12:23.239Z,13.81
2017-08-20T04:13:23.229Z,13.84
2017-08-20T04:14:23.524Z,13.84
2017-08-20T04:15:23.524Z,13.92
2017-08-20T04:16:24.012Z,13.89
2017-08-20T04:17:23.814Z,13.92
2017-08-20T04:18:23.783Z,13.88
2017-08-20T04:19:23.776Z,13.89
2017-08-20T04:20:23.776Z,13.89
2017-08-20T04:21:23.757Z,13.95
2017-08-20T04:22:23.745Z,13.99
2017-08-20T04:23:23.745Z,13.94
2017-08-20T04:24:23.409Z,13.98
2017-08-20T04:25:23.693Z,13.92
2017-08-20T04:26:23.355Z,13.99
2017-08-20T04:27:23.347Z,13.92
2017-08-20T04:28:23.330Z,14.04
2017-08-20T04:29:23.315Z,13.99
2017-08-20T04:30:23.625Z,14.02
2017-08-20T04:31:23.289Z,13.98
2017-08-20T04:32:23.612Z,14.01
2017-08-20T04:33:23.577Z,14.02
2017-08-20T04:34:23.253Z,13.96
2017-08-20T04:35:23.232Z,14.02
2017-08-20T04:36:23.534Z,14.02
2017-08-20T04:37:22.889Z,14.07
2017-08-20T04:38:23.509Z,13.99
2017-08-20T04:39:22.868Z,14.01
2017-08-20T04:40:22.864Z,14.1
2017-08-20T04:41:23.464Z,14.07
2017-08-20T04:42:23.191Z,14.09
2017-08-20T04:43:23.121Z,14.09
2017-08-20T04:44:23.427Z,14.13
2017-08-20T04:45:23.097Z,14.09
2017-08-20T04:46:23.404Z,14.09
2017-08-20T04:47:22.753Z,14.09
2017-08-20T04:48:23.048Z,14.1
2017-08-20T04:49:23.036Z,14.09
2017-08-20T04:50:23.340Z,14.09
2017-08-20T04:51:23.017Z,14.09
2017-08-20T04:52:23.331Z,14.14
2017-08-20T04:53:22.979Z,14.13
2017-08-20T04:54:22.971Z,14.14
2017-08-20T04:55:23.288Z,14.21
2017-08-20T04:56:22.938Z,14.17
2017-08-20T04:57:23.242Z,14.2
2017-08-20T04:58:23.231Z,14.2
2017-08-20T04:59:22.895Z,14.17
2017-08-20T05:00:22.575Z,14.12
2017-08-20T05:01:22.872Z,14.13
2017-08-20T05:02:23.181Z,14.14
2017-08-20T05:03:22.839Z,14.1
2017-08-20T05:04:23.143Z,14.16
2017-08-20T05:05:23.137Z,14.16
2017-08-20T05:06:22.829Z,14.21
2017-08-20T05:07:23.105Z,14.21
2017-08-20T05:08:22.464Z,14.24
2017-08-20T05:09:22.807Z,14.21
2017-08-20T05:10:22.755Z,14.24
2017-08-20T05:11:22.421Z,14.21
2017-08-20T05:12:22.412Z,14.29
2017-08-20T05:13:23.015Z,14.2
2017-08-20T05:14:23.004Z,14.24
2017-08-20T05:15:22.683Z,14.34
2017-08-20T05:16:22.352Z,14.17
2017-08-20T05:17:22.645Z,14.25
2017-08-20T05:18:22.636Z,14.28
2017-08-20T05:19:22.304Z,14.37
2017-08-20T05:20:22.610Z,14.29
2017-08-20T05:21:22.911Z,14.37
2017-08-20T05:22:22.893Z,14.35
2017-08-20T05:23:22.250Z,14.37
2017-08-20T05:24:22.873Z,14.32
2017-08-20T05:25:22.847Z,14.42
2017-08-20T05:26:22.537Z,14.44
2017-08-20T05:27:22.828Z,14.5
2017-08-20T05:28:22.807Z,14.47
2017-08-20T05:29:22.493Z,14.39
2017-08-20T05:30:22.476Z,14.49
2017-08-20T05:31:22.771Z,14.49
2017-08-20T05:32:22.445Z,14.49
2017-08-20T05:33:22.115Z,14.47
2017-08-20T05:34:22.449Z,14.47
2017-08-20T05:35:22.406Z,14.52
2017-08-20T05:36:22.076Z,14.5
2017-08-20T05:37:22.374Z,14.5
2017-08-20T05:38:22.365Z,14.47
2017-08-20T05:39:22.350Z,14.46
2017-08-20T05:40:22.646Z,14.43
2017-08-20T05:41:22.330Z,14.5
2017-08-20T05:42:21.999Z,14.47
2017-08-20T05:43:22.626Z,14.54
2017-08-20T05:44:22.640Z,14.5
2017-08-20T05:45:22.282Z,14.52
2017-08-20T05:46:22.279Z,14.49
2017-08-20T05:47:22.555Z,14.5
2017-08-20T05:48:22.229Z,14.6
2017-08-20T05:49:22.576Z,14.52
2017-08-20T05:50:21.889Z,14.57
2017-08-20T05:51:22.702Z,14.52
2017-08-20T05:52:22.548Z,14.67
2017-08-20T05:53:22.476Z,14.67
2017-08-20T05:54:22.150Z,14.67
2017-08-20T05:55:22.134Z,14.71
2017-08-20T05:56:22.122Z,14.71
2017-08-20T05:57:22.109Z,14.68
2017-08-20T05:58:22.114Z,14.65
2017-08-20T05:59:22.394Z,14.68
2017-08-20T06:00:22.071Z,14.64
2017-08-20T06:01:22.379Z,14.69
2017-08-20T06:02:22.050Z,14.74
2017-08-20T06:03:22.344Z,14.75
2017-08-20T06:04:22.344Z,14.74
2017-08-20T06:05:22.015Z,14.86
2017-08-20T06:06:22.305Z,14.91
2017-08-20T06:07:22.303Z,14.83
2017-08-20T06:08:21.964Z,14.88
2017-08-20T06:09:21.646Z,14.75
2017-08-20T06:10:21.941Z,14.87
2017-08-20T06:11:21.993Z,14.91
2017-08-20T06:12:21.597Z,14.93
2017-08-20T06:13:21.917Z,14.93
2017-08-20T06:14:21.577Z,14.87
2017-08-20T06:15:21.872Z,14.93
2017-08-20T06:16:21.548Z,14.91
2017-08-20T06:17:21.844Z,14.93
2017-08-20T06:18:22.150Z,15.02
2017-08-20T06:19:22.130Z,14.98
2017-08-20T06:20:21.493Z,14.98
2017-08-20T06:21:22.108Z,15.05
2017-08-20T06:22:22.105Z,15.01
2017-08-20T06:23:21.778Z,15.02
2017-08-20T06:24:21.759Z,15.02
2017-08-20T06:25:21.745Z,14.93
2017-08-20T06:26:21.732Z,14.93
2017-08-20T06:27:21.416Z,15.02
2017-08-20T06:28:21.396Z,15.01
2017-08-20T06:29:22.019Z,15.02
2017-08-20T06:30:21.363Z,14.94
2017-08-20T06:31:21.668Z,15.02
2017-08-20T06:32:21.648Z,15.01
2017-08-20T06:33:21.986Z,15.02
2017-08-20T06:34:21.939Z,14.95
2017-08-20T06:35:21.617Z,15.01
2017-08-20T06:36:21.909Z,15.05
2017-08-20T06:37:21.904Z,15.05
2017-08-20T06:38:21.573Z,15.01
2017-08-20T06:39:21.249Z,15.03
2017-08-20T06:40:21.544Z,15.05
2017-08-20T06:41:21.532Z,15.06
2017-08-20T06:42:21.834Z,15.05
2017-08-20T06:43:21.194Z,15.15
2017-08-20T06:44:21.185Z,15.17
2017-08-20T06:45:21.484Z,15.08
2017-08-20T06:46:21.790Z,15.13
2017-08-20T06:47:21.147Z,15.09
2017-08-20T06:48:21.442Z,15.21
2017-08-20T06:49:21.741Z,15.23
2017-08-20T06:50:21.733Z,15.13
2017-08-20T06:51:21.727Z,15.28
2017-08-20T06:52:21.443Z,15.28
2017-08-20T06:53:21.383Z,15.24
2017-08-20T06:54:21.371Z,15.24
2017-08-20T06:55:21.677Z,15.3
2017-08-20T06:56:21.656Z,15.38
2017-08-20T06:57:21.646Z,15.31
2017-08-20T06:58:21.320Z,15.33
2017-08-20T06:59:21.621Z,15.41
2017-08-20T07:00:21.300Z,15.41
2017-08-20T07:01:21.283Z,15.49
2017-08-20T07:02:20.968Z,15.48
2017-08-20T07:03:21.284Z,15.49
2017-08-20T07:04:21.253Z,15.51
2017-08-20T07:05:21.661Z,15.57
2017-08-20T07:06:20.904Z,15.52
2017-08-20T07:07:21.226Z,15.52
2017-08-20T07:08:21.205Z,15.45
2017-08-20T07:09:20.873Z,15.57
2017-08-20T07:10:20.861Z,15.63
2017-08-20T07:11:21.153Z,15.67
2017-08-20T07:12:21.147Z,15.67
2017-08-20T07:13:21.139Z,15.75
2017-08-20T07:14:21.114Z,15.68
2017-08-20T07:15:20.791Z,15.64
2017-08-20T07:16:20.783Z,15.67
2017-08-20T07:17:21.079Z,15.64
2017-08-20T07:18:21.075Z,15.64
2017-08-20T07:19:21.367Z,15.63
2017-08-20T07:20:21.044Z,15.66
2017-08-20T07:21:21.355Z,15.6
2017-08-20T07:22:21.331Z,15.63
2017-08-20T07:23:21.010Z,15.64
2017-08-20T07:24:21.318Z,15.7
2017-08-20T07:25:20.667Z,15.66
2017-08-20T07:26:21.281Z,15.72
2017-08-20T07:27:21.010Z,15.72
2017-08-20T07:28:21.262Z,15.85
2017-08-20T07:29:20.932Z,15.86
2017-08-20T07:30:20.921Z,15.94
2017-08-20T07:31:21.224Z,15.94
2017-08-20T07:32:21.213Z,15.93
2017-08-20T07:33:20.883Z,15.93
2017-08-20T07:34:20.871Z,16.06
2017-08-20T07:35:21.203Z,16.03
2017-08-20T07:36:20.853Z,16.04
2017-08-20T07:37:20.835Z,16.09
2017-08-20T07:38:21.339Z,16.15
2017-08-20T07:39:21.137Z,16.14
2017-08-20T07:40:21.115Z,16.14
2017-08-20T07:41:21.100Z,16.22
2017-08-20T07:42:20.485Z,16.22
2017-08-20T07:43:20.452Z,16.26
2017-08-20T07:44:21.064Z,16.3
2017-08-20T07:45:20.747Z,16.35
2017-08-20T07:46:21.041Z,16.27
2017-08-20T07:47:21.027Z,16.41
2017-08-20T07:48:20.704Z,16.48
2017-08-20T07:49:21.030Z,16.49
2017-08-20T07:50:20.691Z,16.42
2017-08-20T07:51:21.202Z,16.53
2017-08-20T07:52:20.979Z,16.6
2017-08-20T07:53:20.645Z,16.59
2017-08-20T07:54:20.634Z,16.74
2017-08-20T07:55:20.933Z,16.68
2017-08-20T07:56:20.930Z,16.71
2017-08-20T07:57:20.608Z,16.74
2017-08-20T07:58:20.641Z,16.8
2017-08-20T07:59:20.260Z,16.74
2017-08-20T08:00:20.875Z,16.83
2017-08-20T08:01:20.876Z,16.93
2017-08-20T08:02:20.540Z,16.9
2017-08-20T08:03:20.219Z,16.89
2017-08-20T08:04:20.524Z,16.99
2017-08-20T08:05:20.823Z,16.93
2017-08-20T08:06:20.811Z,16.98
2017-08-20T08:07:20.219Z,16.96
2017-08-20T08:08:20.472Z,16.89
2017-08-20T08:09:20.772Z,16.96
2017-08-20T08:10:20.759Z,16.93
2017-08-20T08:11:20.438Z,16.99
2017-08-20T08:12:20.115Z,17.11
2017-08-20T08:13:20.728Z,17.04
2017-08-20T08:14:20.117Z,17.17
2017-08-20T08:15:20.706Z,17.26
2017-08-20T08:16:20.381Z,17.43
2017-08-20T08:17:20.371Z,17.5
2017-08-20T08:18:20.356Z,17.63
2017-08-20T08:19:20.115Z,18.19
2017-08-20T08:20:20.648Z,18.76
2017-08-20T08:21:20.637Z,18.79
2017-08-20T08:22:20.682Z,19.01
2017-08-20T08:23:20.620Z,19.02
2017-08-20T08:24:20.613Z,18.7
2017-08-20T08:25:20.603Z,18.62
2017-08-20T08:26:20.276Z,18.39
2017-08-20T08:27:20.276Z,18.27
2017-08-20T08:28:20.580Z,18.27
2017-08-20T08:29:19.949Z,18.4
2017-08-20T08:30:19.986Z,18.52
2017-08-20T08:31:20.238Z,18.59
2017-08-20T08:32:20.545Z,18.67
2017-08-20T08:33:20.221Z,18.76
2017-08-20T08:34:20.266Z,18.72
2017-08-20T08:35:19.888Z,18.74
2017-08-20T08:36:20.510Z,18.72
2017-08-20T08:37:20.503Z,18.8
2017-08-20T08:38:20.173Z,18.99
2017-08-20T08:39:19.851Z,19.11
2017-08-20T08:40:20.161Z,19.46
2017-08-20T08:41:20.460Z,19.57
2017-08-20T08:42:20.458Z,19.53
2017-08-20T08:43:20.130Z,19.36
2017-08-20T08:44:20.122Z,19.28
2017-08-20T08:45:20.427Z,19.08
2017-08-20T08:46:20.101Z,18.9
2017-08-20T08:47:20.098Z,18.83
2017-08-20T08:48:19.777Z,18.79
2017-08-20T08:49:20.398Z,18.58
2017-08-20T08:50:19.750Z,18.55
2017-08-20T08:51:20.373Z,18.58
2017-08-20T08:52:19.804Z,18.54
2017-08-20T08:53:20.404Z,18.44
2017-08-20T08:54:19.728Z,18.34
2017-08-20T08:55:19.714Z,18.18
2017-08-20T08:56:19.702Z,18.1
2017-08-20T08:57:20.014Z,17.95
2017-08-20T08:58:19.991Z,17.85
2017-08-20T08:59:20.293Z,17.81
2017-08-20T09:00:19.975Z,17.84
2017-08-20T09:01:19.963Z,17.92
2017-08-20T09:02:20.265Z,17.97
2017-08-20T09:03:20.254Z,18.09
2017-08-20T09:04:19.981Z,18.06
2017-08-20T09:05:19.656Z,18.06
2017-08-20T09:06:20.235Z,18.18
2017-08-20T09:07:20.212Z,18.15
2017-08-20T09:08:20.211Z,18.17
2017-08-20T09:09:20.241Z,18.33
2017-08-20T09:10:19.876Z,18.37
2017-08-20T09:11:19.860Z,18.46
2017-08-20T09:12:19.847Z,18.52
2017-08-20T09:13:19.843Z,18.55
2017-08-20T09:14:20.146Z,18.65
2017-08-20T09:15:20.132Z,18.61
2017-08-20T09:16:20.125Z,18.64
2017-08-20T09:17:19.806Z,18.73
2017-08-20T09:18:19.791Z,18.77
2017-08-20T09:19:19.466Z,18.79
2017-08-20T09:20:19.773Z,18.82
2017-08-20T09:21:19.450Z,18.82
2017-08-20T09:22:19.450Z,18.83
2017-08-20T09:23:20.051Z,18.86
2017-08-20T09:24:20.052Z,18.87
2017-08-20T09:25:19.740Z,18.83
2017-08-20T09:26:20.027Z,18.8
2017-08-20T09:27:19.705Z,18.83
2017-08-20T09:28:19.381Z,18.83
2017-08-20T09:29:19.682Z,18.73
2017-08-20T09:30:19.681Z,18.83
2017-08-20T09:31:19.666Z,18.9
2017-08-20T09:32:19.686Z,19.01
2017-08-20T09:33:19.964Z,19.21
2017-08-20T09:34:19.965Z,19.38
2017-08-20T09:35:19.936Z,19.53
2017-08-20T09:36:19.930Z,19.66
2017-08-20T09:37:19.949Z,19.66
2017-08-20T09:38:19.913Z,19.57
2017-08-20T09:39:19.588Z,19.54
2017-08-20T09:40:19.942Z,19.5
2017-08-20T09:41:19.890Z,19.46
2017-08-20T09:42:19.566Z,19.39
2017-08-20T09:43:19.865Z,19.36
2017-08-20T09:44:19.544Z,19.28
2017-08-20T09:45:19.875Z,19.01
2017-08-20T09:46:19.844Z,18.98
2017-08-20T09:47:19.520Z,18.92
2017-08-20T09:48:19.863Z,18.82
2017-08-20T09:49:19.505Z,18.82
2017-08-20T09:50:19.503Z,18.74
2017-08-20T09:51:20.011Z,18.72
2017-08-20T09:52:19.785Z,18.8
2017-08-20T09:53:19.475Z,18.84
2017-08-20T09:54:19.766Z,18.86
2017-08-20T09:55:19.765Z,19.02
2017-08-20T09:56:19.446Z,18.99
2017-08-20T09:57:19.750Z,19.15
2017-08-20T09:58:19.737Z,19.18
2017-08-20T09:59:19.412Z,19.17
2017-08-20T10:00:19.406Z,19.13
2017-08-20T10:01:19.394Z,19.1
2017-08-20T10:02:19.401Z,19.13
2017-08-20T10:03:19.390Z,19.02
2017-08-20T10:04:19.699Z,19.06
2017-08-20T10:05:19.112Z,19.01
2017-08-20T10:06:19.349Z,18.98
2017-08-20T10:07:19.654Z,19.08
2017-08-20T10:08:19.021Z,19.08
2017-08-20T10:09:19.637Z,19.14
2017-08-20T10:10:19.639Z,19.28
2017-08-20T10:11:19.304Z,19.31
2017-08-20T10:12:19.611Z,19.4
2017-08-20T10:13:19.288Z,19.53
2017-08-20T10:14:19.598Z,19.53
2017-08-20T10:15:19.579Z,19.57
2017-08-20T10:16:19.263Z,19.54
2017-08-20T10:17:19.255Z,19.42
2017-08-20T10:18:19.556Z,19.5
2017-08-20T10:19:19.237Z,19.42
2017-08-20T10:20:19.227Z,19.25
2017-08-20T10:21:19.221Z,19.2
2017-08-20T10:22:19.211Z,19.33
2017-08-20T10:23:19.205Z,19.2
2017-08-20T10:24:19.503Z,19.17
2017-08-20T10:25:18.924Z,19.08
2017-08-20T10:26:19.488Z,19.14
2017-08-20T10:27:18.853Z,19.14
2017-08-20T10:28:19.157Z,19.14
2017-08-20T10:29:19.468Z,19.25
2017-08-20T10:30:19.161Z,19.46
2017-08-20T10:31:19.453Z,19.38
2017-08-20T10:32:18.810Z,19.54
2017-08-20T10:33:19.425Z,19.63
2017-08-20T10:34:19.415Z,19.91
2017-08-20T10:35:19.111Z,20.1
2017-08-20T10:36:18.797Z,20.15
2017-08-20T10:37:19.398Z,20.41
2017-08-20T10:38:19.386Z,20.62
2017-08-20T10:39:19.381Z,20.8
2017-08-20T10:40:19.054Z,20.87
2017-08-20T10:41:19.046Z,20.74
2017-08-20T10:42:19.409Z,20.76
2017-08-20T10:43:19.038Z,20.76
2017-08-20T10:44:19.040Z,20.74
2017-08-20T10:45:19.339Z,20.59
2017-08-20T10:46:19.023Z,20.46
2017-08-20T10:47:19.007Z,20.41
2017-08-20T10:48:19.003Z,20.47
2017-08-20T10:49:18.994Z,20.62
2017-08-20T10:50:18.979Z,20.84
2017-08-20T10:51:18.984Z,20.9
2017-08-20T10:52:18.966Z,21.08
2017-08-20T10:53:18.649Z,21.38
2017-08-20T10:54:18.955Z,21.39
2017-08-20T10:55:19.255Z,21.23
2017-08-20T10:56:18.937Z,21.11
2017-08-20T10:57:19.247Z,21.2
2017-08-20T10:58:18.926Z,21.13
2017-08-20T10:59:18.916Z,21.24
2017-08-20T11:00:18.914Z,21.34
2017-08-20T11:01:18.588Z,21.53
2017-08-20T11:02:18.902Z,21.59
2017-08-20T11:03:19.204Z,21.53
2017-08-20T11:04:18.891Z,21.54
2017-08-20T11:05:19.208Z,21.54
2017-08-20T11:06:18.879Z,21.41
2017-08-20T11:07:19.180Z,21.24
2017-08-20T11:08:19.179Z,21.11
2017-08-20T11:09:18.853Z,21.26
2017-08-20T11:10:19.159Z,21.6
2017-08-20T11:11:18.528Z,21.97
2017-08-20T11:12:18.834Z,22.09
2017-08-20T11:13:19.156Z,22.23
2017-08-20T11:14:18.828Z,22.25
2017-08-20T11:15:18.504Z,21.81
2017-08-20T11:16:19.143Z,21.5
2017-08-20T11:17:18.809Z,21.27
2017-08-20T11:18:19.122Z,21.08
2017-08-20T11:19:18.806Z,21.01
2017-08-20T11:20:18.796Z,20.87
2017-08-20T11:21:18.483Z,20.83
2017-08-20T11:22:19.120Z,20.8
2017-08-20T11:23:18.796Z,20.68
2017-08-20T11:24:18.773Z,20.87
2017-08-20T11:25:19.105Z,21.23
2017-08-20T11:26:18.773Z,21.6
2017-08-20T11:27:18.766Z,21.95
2017-08-20T11:28:18.760Z,22.37
2017-08-20T11:29:18.754Z,22.86
2017-08-20T11:30:19.002Z,23.02
2017-08-20T11:31:18.753Z,23.31
2017-08-20T11:32:19.058Z,23.6
2017-08-20T11:33:18.751Z,23.72
2017-08-20T11:34:18.913Z,24.04
2017-08-20T11:35:19.049Z,24.32
2017-08-20T11:36:19.066Z,24.56
2017-08-20T11:37:18.781Z,24.54
2017-08-20T11:38:19.097Z,24.45
2017-08-20T11:39:18.743Z,24.38
2017-08-20T11:40:19.043Z,24.07
2017-08-20T11:41:19.094Z,23.76
2017-08-20T11:42:18.950Z,23.53
2017-08-20T11:43:18.725Z,23.38
2017-08-20T11:44:19.043Z,23.26
2017-08-20T11:45:18.924Z,22.99
2017-08-20T11:46:18.410Z,22.83
2017-08-20T11:47:18.751Z,22.41
2017-08-20T11:48:19.030Z,22.17
2017-08-20T11:49:19.047Z,22.02
2017-08-20T11:50:18.722Z,21.9
2017-08-20T11:51:18.608Z,21.85
2017-08-20T11:52:19.020Z,21.72
2017-08-20T11:53:18.711Z,21.45
2017-08-20T11:54:18.704Z,21.23
2017-08-20T11:55:18.709Z,21.2
2017-08-20T11:56:19.035Z,21.08
2017-08-20T11:57:18.687Z,21.13
2017-08-20T11:58:18.716Z,21.01
2017-08-20T11:59:18.716Z,21.01
2017-08-20T12:00:18.693Z,20.86
2017-08-20T12:01:18.688Z,20.95
2017-08-20T12:02:18.988Z,20.93
2017-08-20T12:03:18.660Z,20.96
2017-08-20T12:04:18.671Z,20.99
2017-08-20T12:05:18.339Z,21.08
2017-08-20T12:06:18.657Z,21.06
2017-08-20T12:07:18.647Z,21.08
2017-08-20T12:08:18.333Z,21.19
2017-08-20T12:09:18.942Z,21.08
2017-08-20T12:10:18.619Z,21.08
2017-08-20T12:11:18.977Z,21.16
2017-08-20T12:12:18.303Z,21.27
2017-08-20T12:13:18.942Z,21.35
2017-08-20T12:14:18.654Z,21.36
2017-08-20T12:15:18.598Z,21.44
2017-08-20T12:16:18.901Z,21.44
2017-08-20T12:17:18.921Z,21.27
2017-08-20T12:18:18.585Z,21.14
2017-08-20T12:19:18.570Z,20.98
2017-08-20T12:20:18.566Z,20.86
2017-08-20T12:21:18.266Z,20.8
2017-08-20T12:22:18.875Z,20.56
2017-08-20T12:23:18.554Z,20.53
2017-08-20T12:24:18.854Z,20.46
2017-08-20T12:25:18.841Z,20.42
2017-08-20T12:26:18.524Z,20.27
2017-08-20T12:27:18.831Z,20.28
2017-08-20T12:28:18.505Z,20.1
2017-08-20T12:29:18.502Z,20.18
2017-08-20T12:30:18.856Z,20.18
2017-08-20T12:31:18.802Z,20.08
2017-08-20T12:32:18.485Z,20.24
2017-08-20T12:33:18.471Z,20.28
2017-08-20T12:34:18.781Z,20.47
2017-08-20T12:35:18.456Z,20.64
2017-08-20T12:36:18.799Z,20.8
2017-08-20T12:37:18.756Z,20.81
2017-08-20T12:38:18.747Z,20.87
2017-08-20T12:39:18.426Z,20.99
2017-08-20T12:40:18.732Z,20.95
2017-08-20T12:41:18.724Z,20.95
2017-08-20T12:42:18.722Z,20.89
2017-08-20T12:43:18.397Z,20.74
2017-08-20T12:44:18.705Z,20.77
2017-08-20T12:45:18.705Z,20.64
2017-08-20T12:46:18.386Z,20.59
2017-08-20T12:47:18.368Z,20.58
2017-08-20T12:48:18.363Z,20.51
2017-08-20T12:49:18.381Z,20.53
2017-08-20T12:50:18.689Z,20.53
2017-08-20T12:51:19.118Z,20.5
2017-08-20T12:52:18.644Z,20.28
2017-08-20T12:53:18.032Z,20.18
2017-08-20T12:54:18.329Z,19.98